ADDS METAR Data

Data at: 0513 UTC 19 Jan 2018

METAR for:KEWB (New Bedford Rgnl, MA, US)
Text:KEWB 190453Z AUTO 29008KT 10SM CLR M04/M09 A2995 RMK AO2 SLP143 T10441089 400221050
Temperature: -4.4°C ( 24°F)
Dewpoint: -8.9°C ( 16°F) [RH = 71%]
Pressure (altimeter):29.95 inches Hg (1014.3 mb) [Sea level pressure: 1014.3 mb]
Winds:from the WNW (290 degrees) at 9 MPH (8 knots; 4.1 m/s)
Visibility:10 or more sm (16+ km)
Ceiling:at least 12,000 feet AGL
Clouds:sky clear below 12,000 feet AGL
QC Flag:automated observation with no human augmentation